sensor_id;sensor_type;location;lat;lon;timestamp;P1;durP1;ratioP1;P2;durP2;ratioP2
53421;SDS011;39319;52.944;5.928;2022-10-24T00:00:46;11.52;;;2.67;;
53421;SDS011;39319;52.944;5.928;2022-10-24T00:03:12;16.08;;;2.90;;
53421;SDS011;39319;52.944;5.928;2022-10-24T00:05:42;10.10;;;2.60;;
53421;SDS011;39319;52.944;5.928;2022-10-24T00:08:10;14.83;;;3.20;;
53421;SDS011;39319;52.944;5.928;2022-10-24T00:10:36;13.98;;;3.17;;
53421;SDS011;39319;52.944;5.928;2022-10-24T00:13:05;11.55;;;2.97;;
53421;SDS011;39319;52.944;5.928;2022-10-24T00:15:32;11.88;;;2.83;;
53421;SDS011;39319;52.944;5.928;2022-10-24T00:17:57;13.15;;;3.05;;
53421;SDS011;39319;52.944;5.928;2022-10-24T00:20:24;12.63;;;2.88;;
53421;SDS011;39319;52.944;5.928;2022-10-24T00:22:49;12.05;;;3.15;;
53421;SDS011;39319;52.944;5.928;2022-10-24T00:25:15;13.10;;;3.30;;
53421;SDS011;39319;52.944;5.928;2022-10-24T00:27:43;11.18;;;3.10;;
53421;SDS011;39319;52.944;5.928;2022-10-24T00:30:09;13.38;;;3.47;;
53421;SDS011;39319;52.944;5.928;2022-10-24T00:32:35;11.80;;;3.30;;
53421;SDS011;39319;52.944;5.928;2022-10-24T00:35:01;18.15;;;3.65;;
53421;SDS011;39319;52.944;5.928;2022-10-24T00:37:27;13.57;;;2.85;;
53421;SDS011;39319;52.944;5.928;2022-10-24T00:39:53;13.60;;;3.55;;
53421;SDS011;39319;52.944;5.928;2022-10-24T00:42:19;9.65;;;2.88;;
53421;SDS011;39319;52.944;5.928;2022-10-24T00:44:45;15.15;;;3.50;;
53421;SDS011;39319;52.944;5.928;2022-10-24T00:47:24;10.10;;;2.70;;
53421;SDS011;39319;52.944;5.928;2022-10-24T00:52:25;13.32;;;3.25;;
53421;SDS011;39319;52.944;5.928;2022-10-24T00:54:54;12.60;;;2.97;;
53421;SDS011;39319;52.944;5.928;2022-10-24T00:57:33;14.77;;;3.00;;
53421;SDS011;39319;52.944;5.928;2022-10-24T01:00:05;11.43;;;2.75;;
53421;SDS011;39319;52.944;5.928;2022-10-24T01:02:37;14.82;;;3.45;;
53421;SDS011;39319;52.944;5.928;2022-10-24T01:05:03;10.50;;;3.15;;
53421;SDS011;39319;52.944;5.928;2022-10-24T01:15:50;15.50;;;3.50;;
53421;SDS011;39319;52.944;5.928;2022-10-24T01:31:41;15.25;;;3.70;;
53421;SDS011;39319;52.944;5.928;2022-10-24T01:34:24;15.98;;;3.60;;
53421;SDS011;39319;52.944;5.928;2022-10-24T01:37:07;11.73;;;3.17;;
53421;SDS011;39319;52.944;5.928;2022-10-24T01:39:39;12.63;;;3.63;;
53421;SDS011;39319;52.944;5.928;2022-10-24T01:42:12;11.73;;;3.83;;
53421;SDS011;39319;52.944;5.928;2022-10-24T01:44:43;15.27;;;3.88;;
53421;SDS011;39319;52.944;5.928;2022-10-24T01:47:18;14.70;;;4.03;;
53421;SDS011;39319;52.944;5.928;2022-10-24T01:49:50;15.07;;;4.40;;
53421;SDS011;39319;52.944;5.928;2022-10-24T01:52:20;12.52;;;3.97;;
53421;SDS011;39319;52.944;5.928;2022-10-24T01:54:49;14.90;;;3.80;;
53421;SDS011;39319;52.944;5.928;2022-10-24T01:57:16;15.85;;;4.47;;
53421;SDS011;39319;52.944;5.928;2022-10-24T01:59:43;13.95;;;4.32;;
53421;SDS011;39319;52.944;5.928;2022-10-24T02:02:16;16.20;;;4.47;;
53421;SDS011;39319;52.944;5.928;2022-10-24T02:08:10;13.40;;;4.05;;
53421;SDS011;39319;52.944;5.928;2022-10-24T02:10:52;19.08;;;4.38;;
53421;SDS011;39319;52.944;5.928;2022-10-24T02:13:28;17.63;;;4.70;;
53421;SDS011;39319;52.944;5.928;2022-10-24T02:16:12;15.32;;;4.53;;
53421;SDS011;39319;52.944;5.928;2022-10-24T02:18:41;20.25;;;4.50;;
53421;SDS011;39319;52.944;5.928;2022-10-24T02:27:07;19.35;;;4.20;;
53421;SDS011;39319;52.944;5.928;2022-10-24T02:29:46;17.02;;;4.07;;
53421;SDS011;39319;52.944;5.928;2022-10-24T02:32:21;22.80;;;4.57;;
53421;SDS011;39319;52.944;5.928;2022-10-24T02:34:52;14.85;;;4.00;;
53421;SDS011;39319;52.944;5.928;2022-10-24T02:37:19;13.35;;;3.58;;
53421;SDS011;39319;52.944;5.928;2022-10-24T02:39:48;15.30;;;4.00;;
53421;SDS011;39319;52.944;5.928;2022-10-24T02:42:16;17.90;;;4.47;;
53421;SDS011;39319;52.944;5.928;2022-10-24T02:44:46;15.93;;;3.70;;
53421;SDS011;39319;52.944;5.928;2022-10-24T02:47:13;17.00;;;4.13;;
53421;SDS011;39319;52.944;5.928;2022-10-24T02:49:40;16.60;;;3.97;;
53421;SDS011;39319;52.944;5.928;2022-10-24T02:52:07;19.38;;;3.40;;
53421;SDS011;39319;52.944;5.928;2022-10-24T02:54:33;16.02;;;3.60;;
53421;SDS011;39319;52.944;5.928;2022-10-24T02:56:59;24.27;;;3.97;;
53421;SDS011;39319;52.944;5.928;2022-10-24T02:59:26;16.85;;;3.85;;
53421;SDS011;39319;52.944;5.928;2022-10-24T03:01:52;11.95;;;3.38;;
53421;SDS011;39319;52.944;5.928;2022-10-24T03:04:18;18.13;;;3.83;;
53421;SDS011;39319;52.944;5.928;2022-10-24T03:06:44;12.93;;;3.70;;
53421;SDS011;39319;52.944;5.928;2022-10-24T03:09:10;15.25;;;3.85;;
53421;SDS011;39319;52.944;5.928;2022-10-24T03:11:36;15.38;;;3.63;;
53421;SDS011;39319;52.944;5.928;2022-10-24T03:14:02;17.50;;;3.30;;
53421;SDS011;39319;52.944;5.928;2022-10-24T03:16:28;14.63;;;3.70;;
53421;SDS011;39319;52.944;5.928;2022-10-24T03:18:54;19.70;;;3.40;;
53421;SDS011;39319;52.944;5.928;2022-10-24T03:21:20;17.40;;;3.45;;
53421;SDS011;39319;52.944;5.928;2022-10-24T03:23:46;18.00;;;3.57;;
53421;SDS011;39319;52.944;5.928;2022-10-24T03:26:13;14.30;;;3.47;;
53421;SDS011;39319;52.944;5.928;2022-10-24T03:28:38;13.98;;;3.30;;
53421;SDS011;39319;52.944;5.928;2022-10-24T03:31:06;18.35;;;3.00;;
53421;SDS011;39319;52.944;5.928;2022-10-24T03:33:32;11.57;;;3.40;;
53421;SDS011;39319;52.944;5.928;2022-10-24T03:35:58;13.68;;;2.92;;
53421;SDS011;39319;52.944;5.928;2022-10-24T03:38:24;16.05;;;3.25;;
53421;SDS011;39319;52.944;5.928;2022-10-24T03:40:50;15.18;;;3.40;;
53421;SDS011;39319;52.944;5.928;2022-10-24T03:43:16;13.10;;;3.22;;
53421;SDS011;39319;52.944;5.928;2022-10-24T03:45:42;13.63;;;3.27;;
53421;SDS011;39319;52.944;5.928;2022-10-24T03:48:09;14.48;;;3.10;;
53421;SDS011;39319;52.944;5.928;2022-10-24T03:50:35;13.63;;;3.20;;
53421;SDS011;39319;52.944;5.928;2022-10-24T03:53:00;13.23;;;3.10;;
53421;SDS011;39319;52.944;5.928;2022-10-24T03:55:27;15.10;;;3.33;;
53421;SDS011;39319;52.944;5.928;2022-10-24T03:57:54;15.68;;;2.90;;
53421;SDS011;39319;52.944;5.928;2022-10-24T04:00:20;17.25;;;2.97;;
53421;SDS011;39319;52.944;5.928;2022-10-24T04:02:46;19.70;;;3.05;;
53421;SDS011;39319;52.944;5.928;2022-10-24T04:05:14;13.32;;;3.38;;
53421;SDS011;39319;52.944;5.928;2022-10-24T04:07:40;14.15;;;2.97;;
53421;SDS011;39319;52.944;5.928;2022-10-24T04:10:06;13.13;;;3.10;;
53421;SDS011;39319;52.944;5.928;2022-10-24T04:12:32;11.63;;;2.78;;
53421;SDS011;39319;52.944;5.928;2022-10-24T04:14:58;12.07;;;3.00;;
53421;SDS011;39319;52.944;5.928;2022-10-24T04:17:24;13.67;;;3.07;;
53421;SDS011;39319;52.944;5.928;2022-10-24T04:19:50;13.57;;;3.20;;
53421;SDS011;39319;52.944;5.928;2022-10-24T04:22:16;16.70;;;2.97;;
53421;SDS011;39319;52.944;5.928;2022-10-24T04:24:42;11.77;;;3.15;;
53421;SDS011;39319;52.944;5.928;2022-10-24T04:27:07;15.25;;;3.22;;
53421;SDS011;39319;52.944;5.928;2022-10-24T04:29:36;14.65;;;2.60;;
53421;SDS011;39319;52.944;5.928;2022-10-24T04:32:02;12.50;;;2.88;;
53421;SDS011;39319;52.944;5.928;2022-10-24T04:34:28;15.63;;;2.65;;
53421;SDS011;39319;52.944;5.928;2022-10-24T04:36:54;11.87;;;2.70;;
53421;SDS011;39319;52.944;5.928;2022-10-24T04:39:20;16.10;;;2.70;;
53421;SDS011;39319;52.944;5.928;2022-10-24T04:41:45;12.65;;;2.72;;
53421;SDS011;39319;52.944;5.928;2022-10-24T04:44:11;17.33;;;2.78;;
53421;SDS011;39319;52.944;5.928;2022-10-24T04:46:37;16.45;;;2.83;;
53421;SDS011;39319;52.944;5.928;2022-10-24T04:49:03;17.75;;;3.00;;
53421;SDS011;39319;52.944;5.928;2022-10-24T04:51:29;10.50;;;2.90;;
53421;SDS011;39319;52.944;5.928;2022-10-24T04:53:54;14.27;;;2.80;;
53421;SDS011;39319;52.944;5.928;2022-10-24T04:56:20;11.20;;;2.30;;
53421;SDS011;39319;52.944;5.928;2022-10-24T04:58:46;10.57;;;2.33;;
53421;SDS011;39319;52.944;5.928;2022-10-24T05:01:12;11.25;;;2.25;;
53421;SDS011;39319;52.944;5.928;2022-10-24T05:03:38;13.93;;;2.90;;
53421;SDS011;39319;52.944;5.928;2022-10-24T05:06:04;12.70;;;2.60;;
53421;SDS011;39319;52.944;5.928;2022-10-24T05:08:30;16.48;;;2.47;;
53421;SDS011;39319;52.944;5.928;2022-10-24T05:10:56;11.02;;;2.78;;
53421;SDS011;39319;52.944;5.928;2022-10-24T05:13:22;13.17;;;2.67;;
53421;SDS011;39319;52.944;5.928;2022-10-24T05:15:47;10.73;;;2.40;;
53421;SDS011;39319;52.944;5.928;2022-10-24T05:18:13;14.10;;;2.60;;
53421;SDS011;39319;52.944;5.928;2022-10-24T05:20:39;12.93;;;2.60;;
53421;SDS011;39319;52.944;5.928;2022-10-24T05:23:05;13.43;;;2.55;;
53421;SDS011;39319;52.944;5.928;2022-10-24T05:25:31;14.00;;;2.50;;
53421;SDS011;39319;52.944;5.928;2022-10-24T05:27:57;12.35;;;2.60;;
53421;SDS011;39319;52.944;5.928;2022-10-24T05:30:23;11.57;;;2.37;;
53421;SDS011;39319;52.944;5.928;2022-10-24T05:32:49;13.00;;;2.47;;
53421;SDS011;39319;52.944;5.928;2022-10-24T05:35:15;17.13;;;2.30;;
53421;SDS011;39319;52.944;5.928;2022-10-24T05:37:41;11.13;;;2.10;;
53421;SDS011;39319;52.944;5.928;2022-10-24T05:40:09;13.90;;;2.50;;
53421;SDS011;39319;52.944;5.928;2022-10-24T05:42:35;12.80;;;2.20;;
53421;SDS011;39319;52.944;5.928;2022-10-24T05:45:03;14.75;;;2.40;;
53421;SDS011;39319;52.944;5.928;2022-10-24T05:47:30;13.50;;;2.22;;
53421;SDS011;39319;52.944;5.928;2022-10-24T05:49:56;17.75;;;2.53;;
53421;SDS011;39319;52.944;5.928;2022-10-24T05:52:23;17.30;;;2.40;;
53421;SDS011;39319;52.944;5.928;2022-10-24T05:54:50;18.92;;;2.25;;
53421;SDS011;39319;52.944;5.928;2022-10-24T05:57:16;11.65;;;2.10;;
53421;SDS011;39319;52.944;5.928;2022-10-24T05:59:42;11.82;;;2.25;;
53421;SDS011;39319;52.944;5.928;2022-10-24T06:02:09;12.25;;;2.13;;
53421;SDS011;39319;52.944;5.928;2022-10-24T06:04:43;13.98;;;2.20;;
53421;SDS011;39319;52.944;5.928;2022-10-24T06:07:08;15.10;;;2.42;;
53421;SDS011;39319;52.944;5.928;2022-10-24T06:09:34;11.87;;;2.27;;
53421;SDS011;39319;52.944;5.928;2022-10-24T06:12:00;16.47;;;2.30;;
53421;SDS011;39319;52.944;5.928;2022-10-24T06:14:26;11.50;;;2.00;;
53421;SDS011;39319;52.944;5.928;2022-10-24T06:16:51;16.38;;;2.50;;
53421;SDS011;39319;52.944;5.928;2022-10-24T06:19:18;11.18;;;2.33;;
53421;SDS011;39319;52.944;5.928;2022-10-24T06:21:45;14.73;;;2.10;;
53421;SDS011;39319;52.944;5.928;2022-10-24T06:24:12;16.25;;;2.28;;
53421;SDS011;39319;52.944;5.928;2022-10-24T06:26:38;12.30;;;2.13;;
53421;SDS011;39319;52.944;5.928;2022-10-24T06:29:04;14.75;;;2.17;;
53421;SDS011;39319;52.944;5.928;2022-10-24T06:31:32;14.40;;;2.20;;
53421;SDS011;39319;52.944;5.928;2022-10-24T06:33:59;11.88;;;2.22;;
53421;SDS011;39319;52.944;5.928;2022-10-24T06:36:25;13.87;;;2.07;;
53421;SDS011;39319;52.944;5.928;2022-10-24T06:38:52;12.95;;;1.85;;
53421;SDS011;39319;52.944;5.928;2022-10-24T06:41:21;17.33;;;1.92;;
53421;SDS011;39319;52.944;5.928;2022-10-24T06:43:47;10.93;;;1.88;;
53421;SDS011;39319;52.944;5.928;2022-10-24T06:46:14;10.88;;;1.70;;
53421;SDS011;39319;52.944;5.928;2022-10-24T06:48:41;16.73;;;2.10;;
53421;SDS011;39319;52.944;5.928;2022-10-24T06:51:13;10.48;;;1.75;;
53421;SDS011;39319;52.944;5.928;2022-10-24T06:53:40;11.48;;;1.77;;
53421;SDS011;39319;52.944;5.928;2022-10-24T06:56:06;9.68;;;2.00;;
53421;SDS011;39319;52.944;5.928;2022-10-24T06:58:33;23.35;;;2.20;;
53421;SDS011;39319;52.944;5.928;2022-10-24T07:01:06;10.05;;;2.03;;
53421;SDS011;39319;52.944;5.928;2022-10-24T07:03:33;12.23;;;2.13;;
53421;SDS011;39319;52.944;5.928;2022-10-24T07:06:03;15.45;;;2.35;;
53421;SDS011;39319;52.944;5.928;2022-10-24T07:08:34;12.18;;;2.25;;
53421;SDS011;39319;52.944;5.928;2022-10-24T07:11:02;9.27;;;1.60;;
53421;SDS011;39319;52.944;5.928;2022-10-24T07:13:28;12.25;;;1.90;;
53421;SDS011;39319;52.944;5.928;2022-10-24T07:15:54;13.35;;;1.90;;
53421;SDS011;39319;52.944;5.928;2022-10-24T07:18:20;10.10;;;2.13;;
53421;SDS011;39319;52.944;5.928;2022-10-24T07:20:46;17.27;;;2.47;;
53421;SDS011;39319;52.944;5.928;2022-10-24T07:23:13;13.15;;;2.08;;
53421;SDS011;39319;52.944;5.928;2022-10-24T07:25:40;12.55;;;2.10;;
53421;SDS011;39319;52.944;5.928;2022-10-24T07:28:06;12.50;;;2.20;;
53421;SDS011;39319;52.944;5.928;2022-10-24T07:30:33;12.95;;;2.13;;
53421;SDS011;39319;52.944;5.928;2022-10-24T07:32:59;10.53;;;1.60;;
53421;SDS011;39319;52.944;5.928;2022-10-24T07:35:25;12.27;;;1.83;;
53421;SDS011;39319;52.944;5.928;2022-10-24T07:37:50;12.05;;;1.90;;
53421;SDS011;39319;52.944;5.928;2022-10-24T07:40:17;17.45;;;2.38;;
53421;SDS011;39319;52.944;5.928;2022-10-24T07:42:44;11.32;;;1.73;;
53421;SDS011;39319;52.944;5.928;2022-10-24T07:45:10;11.02;;;1.98;;
53421;SDS011;39319;52.944;5.928;2022-10-24T07:47:36;10.82;;;2.13;;
53421;SDS011;39319;52.944;5.928;2022-10-24T07:50:02;11.73;;;2.00;;
53421;SDS011;39319;52.944;5.928;2022-10-24T07:52:29;10.90;;;1.88;;
53421;SDS011;39319;52.944;5.928;2022-10-24T07:54:55;14.83;;;2.33;;
53421;SDS011;39319;52.944;5.928;2022-10-24T07:57:22;11.02;;;2.08;;
53421;SDS011;39319;52.944;5.928;2022-10-24T07:59:48;12.98;;;1.83;;
53421;SDS011;39319;52.944;5.928;2022-10-24T08:02:17;9.63;;;2.33;;
53421;SDS011;39319;52.944;5.928;2022-10-24T08:04:43;11.57;;;2.20;;
53421;SDS011;39319;52.944;5.928;2022-10-24T08:07:09;13.35;;;1.90;;
53421;SDS011;39319;52.944;5.928;2022-10-24T08:09:39;12.80;;;2.47;;
53421;SDS011;39319;52.944;5.928;2022-10-24T08:12:07;12.25;;;2.22;;
53421;SDS011;39319;52.944;5.928;2022-10-24T08:14:32;11.70;;;1.90;;
53421;SDS011;39319;52.944;5.928;2022-10-24T08:16:58;11.25;;;2.13;;
53421;SDS011;39319;52.944;5.928;2022-10-24T08:19:24;9.25;;;1.70;;
53421;SDS011;39319;52.944;5.928;2022-10-24T08:21:50;12.80;;;1.92;;
53421;SDS011;39319;52.944;5.928;2022-10-24T08:24:16;12.30;;;2.20;;
53421;SDS011;39319;52.944;5.928;2022-10-24T08:26:42;9.53;;;1.77;;
53421;SDS011;39319;52.944;5.928;2022-10-24T08:29:08;9.77;;;2.07;;
53421;SDS011;39319;52.944;5.928;2022-10-24T08:31:38;11.93;;;1.65;;
53421;SDS011;39319;52.944;5.928;2022-10-24T08:34:04;11.20;;;2.20;;
53421;SDS011;39319;52.944;5.928;2022-10-24T08:36:31;13.43;;;2.10;;
53421;SDS011;39319;52.944;5.928;2022-10-24T08:38:59;8.75;;;2.00;;
53421;SDS011;39319;52.944;5.928;2022-10-24T08:41:34;13.23;;;2.10;;
53421;SDS011;39319;52.944;5.928;2022-10-24T08:46:58;12.48;;;2.13;;
53421;SDS011;39319;52.944;5.928;2022-10-24T08:49:42;9.13;;;2.10;;
53421;SDS011;39319;52.944;5.928;2022-10-24T08:52:17;12.55;;;2.00;;
53421;SDS011;39319;52.944;5.928;2022-10-24T08:55:17;11.13;;;1.88;;
53421;SDS011;39319;52.944;5.928;2022-10-24T08:57:52;12.48;;;1.77;;
53421;SDS011;39319;52.944;5.928;2022-10-24T09:00:23;13.70;;;2.50;;
53421;SDS011;39319;52.944;5.928;2022-10-24T09:02:56;10.60;;;1.80;;
53421;SDS011;39319;52.944;5.928;2022-10-24T09:05:47;12.60;;;2.17;;
53421;SDS011;39319;52.944;5.928;2022-10-24T09:08:26;14.55;;;2.42;;
53421;SDS011;39319;52.944;5.928;2022-10-24T09:11:00;15.27;;;2.33;;
53421;SDS011;39319;52.944;5.928;2022-10-24T09:13:29;11.13;;;2.20;;
53421;SDS011;39319;52.944;5.928;2022-10-24T09:15:57;15.25;;;2.10;;
53421;SDS011;39319;52.944;5.928;2022-10-24T09:18:29;15.32;;;2.80;;
53421;SDS011;39319;52.944;5.928;2022-10-24T09:20:58;11.82;;;1.92;;
53421;SDS011;39319;52.944;5.928;2022-10-24T09:23:25;16.08;;;2.25;;
53421;SDS011;39319;52.944;5.928;2022-10-24T09:25:55;11.38;;;2.03;;
53421;SDS011;39319;52.944;5.928;2022-10-24T09:28:23;14.43;;;2.33;;
53421;SDS011;39319;52.944;5.928;2022-10-24T09:30:53;10.23;;;1.70;;
53421;SDS011;39319;52.944;5.928;2022-10-24T09:35:54;13.18;;;2.33;;
53421;SDS011;39319;52.944;5.928;2022-10-24T09:40:54;12.55;;;2.17;;
53421;SDS011;39319;52.944;5.928;2022-10-24T09:43:38;10.93;;;2.10;;
53421;SDS011;39319;52.944;5.928;2022-10-24T09:46:08;10.75;;;1.80;;
53421;SDS011;39319;52.944;5.928;2022-10-24T09:51:30;16.38;;;2.25;;
53421;SDS011;39319;52.944;5.928;2022-10-24T09:56:50;10.73;;;2.10;;
53421;SDS011;39319;52.944;5.928;2022-10-24T10:02:13;11.25;;;1.95;;
53421;SDS011;39319;52.944;5.928;2022-10-24T10:07:32;12.38;;;2.30;;
53421;SDS011;39319;52.944;5.928;2022-10-24T10:13:01;13.63;;;2.40;;
53421;SDS011;39319;52.944;5.928;2022-10-24T10:15:35;10.17;;;1.83;;
53421;SDS011;39319;52.944;5.928;2022-10-24T10:18:05;12.98;;;2.45;;
53421;SDS011;39319;52.944;5.928;2022-10-24T10:23:34;10.93;;;2.20;;
53421;SDS011;39319;52.944;5.928;2022-10-24T10:26:06;13.23;;;2.17;;
53421;SDS011;39319;52.944;5.928;2022-10-24T10:31:15;11.15;;;1.95;;
53421;SDS011;39319;52.944;5.928;2022-10-24T10:42:15;14.20;;;2.53;;
53421;SDS011;39319;52.944;5.928;2022-10-24T10:45:01;10.77;;;2.23;;
53421;SDS011;39319;52.944;5.928;2022-10-24T10:56:00;12.48;;;1.92;;
53421;SDS011;39319;52.944;5.928;2022-10-24T11:01:49;12.50;;;2.70;;
53421;SDS011;39319;52.944;5.928;2022-10-24T11:10:31;15.07;;;2.55;;
53421;SDS011;39319;52.944;5.928;2022-10-24T11:13:04;11.52;;;2.08;;
53421;SDS011;39319;52.944;5.928;2022-10-24T11:15:39;12.27;;;2.00;;
53421;SDS011;39319;52.944;5.928;2022-10-24T11:20:46;8.93;;;1.73;;
53421;SDS011;39319;52.944;5.928;2022-10-24T11:23:15;11.77;;;1.95;;
53421;SDS011;39319;52.944;5.928;2022-10-24T11:25:53;14.70;;;2.17;;
53421;SDS011;39319;52.944;5.928;2022-10-24T11:28:23;11.13;;;2.30;;
53421;SDS011;39319;52.944;5.928;2022-10-24T11:30:55;11.82;;;1.77;;
53421;SDS011;39319;52.944;5.928;2022-10-24T11:33:35;11.20;;;2.00;;
53421;SDS011;39319;52.944;5.928;2022-10-24T11:36:28;11.93;;;1.97;;
53421;SDS011;39319;52.944;5.928;2022-10-24T11:39:05;10.10;;;2.25;;
53421;SDS011;39319;52.944;5.928;2022-10-24T11:41:37;12.00;;;1.58;;
53421;SDS011;39319;52.944;5.928;2022-10-24T11:44:22;9.05;;;1.90;;
53421;SDS011;39319;52.944;5.928;2022-10-24T11:47:03;9.73;;;2.08;;
53421;SDS011;39319;52.944;5.928;2022-10-24T11:49:39;11.18;;;2.10;;
53421;SDS011;39319;52.944;5.928;2022-10-24T11:54:50;14.68;;;2.35;;
53421;SDS011;39319;52.944;5.928;2022-10-24T11:57:24;12.53;;;1.83;;
53421;SDS011;39319;52.944;5.928;2022-10-24T11:59:53;12.23;;;2.60;;
53421;SDS011;39319;52.944;5.928;2022-10-24T12:02:33;11.85;;;1.85;;
53421;SDS011;39319;52.944;5.928;2022-10-24T12:19:14;9.48;;;1.83;;
53421;SDS011;39319;52.944;5.928;2022-10-24T12:21:48;10.75;;;1.90;;
53421;SDS011;39319;52.944;5.928;2022-10-24T12:24:23;12.65;;;2.22;;
53421;SDS011;39319;52.944;5.928;2022-10-24T12:26:54;10.57;;;1.80;;
53421;SDS011;39319;52.944;5.928;2022-10-24T12:29:26;12.15;;;2.20;;
53421;SDS011;39319;52.944;5.928;2022-10-24T12:31:56;8.37;;;1.70;;
53421;SDS011;39319;52.944;5.928;2022-10-24T12:39:46;10.25;;;1.85;;
53421;SDS011;39319;52.944;5.928;2022-10-24T12:44:51;14.13;;;2.20;;
53421;SDS011;39319;52.944;5.928;2022-10-24T12:58:03;8.88;;;1.92;;
53421;SDS011;39319;52.944;5.928;2022-10-24T13:01:24;15.30;;;2.30;;
53421;SDS011;39319;52.944;5.928;2022-10-24T13:14:52;11.38;;;1.90;;
53421;SDS011;39319;52.944;5.928;2022-10-24T13:22:43;10.20;;;1.85;;
53421;SDS011;39319;52.944;5.928;2022-10-24T13:30:46;9.13;;;1.73;;
53421;SDS011;39319;52.944;5.928;2022-10-24T13:36:16;8.80;;;1.70;;
53421;SDS011;39319;52.944;5.928;2022-10-24T13:38:56;8.73;;;1.60;;
53421;SDS011;39319;52.944;5.928;2022-10-24T13:44:40;9.77;;;1.80;;
53421;SDS011;39319;52.944;5.928;2022-10-24T13:49:30;10.93;;;1.90;;
53421;SDS011;39319;52.944;5.928;2022-10-24T13:52:19;8.30;;;1.52;;
53421;SDS011;39319;52.944;5.928;2022-10-24T13:54:45;10.73;;;2.10;;
53421;SDS011;39319;52.944;5.928;2022-10-24T13:57:25;7.03;;;1.70;;
53421;SDS011;39319;52.944;5.928;2022-10-24T13:59:59;8.38;;;1.92;;
53421;SDS011;39319;52.944;5.928;2022-10-24T14:02:30;9.63;;;2.43;;
53421;SDS011;39319;52.944;5.928;2022-10-24T14:04:57;12.18;;;2.40;;
53421;SDS011;39319;52.944;5.928;2022-10-24T14:07:26;10.60;;;2.00;;
53421;SDS011;39319;52.944;5.928;2022-10-24T14:09:58;10.23;;;1.80;;
53421;SDS011;39319;52.944;5.928;2022-10-24T14:12:29;7.20;;;1.55;;
53421;SDS011;39319;52.944;5.928;2022-10-24T14:14:56;11.87;;;1.53;;
53421;SDS011;39319;52.944;5.928;2022-10-24T14:17:28;8.52;;;1.70;;
53421;SDS011;39319;52.944;5.928;2022-10-24T14:20:16;8.82;;;1.55;;
53421;SDS011;39319;52.944;5.928;2022-10-24T14:22:45;8.07;;;1.40;;
53421;SDS011;39319;52.944;5.928;2022-10-24T14:27:55;8.55;;;1.58;;
53421;SDS011;39319;52.944;5.928;2022-10-24T14:30:25;10.65;;;1.88;;
53421;SDS011;39319;52.944;5.928;2022-10-24T14:33:05;9.50;;;1.80;;
53421;SDS011;39319;52.944;5.928;2022-10-24T14:35:43;13.48;;;2.10;;
53421;SDS011;39319;52.944;5.928;2022-10-24T14:38:11;8.57;;;1.70;;
53421;SDS011;39319;52.944;5.928;2022-10-24T14:40:39;12.03;;;1.93;;
53421;SDS011;39319;52.944;5.928;2022-10-24T14:43:08;9.67;;;1.90;;
53421;SDS011;39319;52.944;5.928;2022-10-24T14:45:41;10.02;;;2.08;;
53421;SDS011;39319;52.944;5.928;2022-10-24T14:48:25;10.95;;;2.00;;
53421;SDS011;39319;52.944;5.928;2022-10-24T14:50:53;9.32;;;1.77;;
53421;SDS011;39319;52.944;5.928;2022-10-24T14:53:39;9.93;;;2.23;;
53421;SDS011;39319;52.944;5.928;2022-10-24T14:58:52;9.30;;;1.98;;
53421;SDS011;39319;52.944;5.928;2022-10-24T15:01:20;11.25;;;1.90;;
53421;SDS011;39319;52.944;5.928;2022-10-24T15:06:25;9.25;;;2.05;;
53421;SDS011;39319;52.944;5.928;2022-10-24T15:09:25;10.70;;;1.98;;
53421;SDS011;39319;52.944;5.928;2022-10-24T15:12:09;7.75;;;1.80;;
53421;SDS011;39319;52.944;5.928;2022-10-24T15:19:54;7.78;;;1.50;;
53421;SDS011;39319;52.944;5.928;2022-10-24T15:22:34;7.70;;;1.50;;
53421;SDS011;39319;52.944;5.928;2022-10-24T15:25:07;9.10;;;1.45;;
53421;SDS011;39319;52.944;5.928;2022-10-24T15:27:43;9.93;;;1.63;;
53421;SDS011;39319;52.944;5.928;2022-10-24T15:30:17;10.32;;;1.80;;
53421;SDS011;39319;52.944;5.928;2022-10-24T15:32:47;7.60;;;1.40;;
53421;SDS011;39319;52.944;5.928;2022-10-24T15:35:14;8.27;;;1.60;;
53421;SDS011;39319;52.944;5.928;2022-10-24T15:40:28;8.52;;;1.60;;
53421;SDS011;39319;52.944;5.928;2022-10-24T15:42:56;6.95;;;1.40;;
53421;SDS011;39319;52.944;5.928;2022-10-24T15:45:22;6.10;;;1.47;;
53421;SDS011;39319;52.944;5.928;2022-10-24T15:47:49;6.68;;;1.45;;
53421;SDS011;39319;52.944;5.928;2022-10-24T15:50:20;6.82;;;1.55;;
53421;SDS011;39319;52.944;5.928;2022-10-24T15:52:51;9.52;;;2.20;;
53421;SDS011;39319;52.944;5.928;2022-10-24T15:55:20;7.65;;;1.50;;
53421;SDS011;39319;52.944;5.928;2022-10-24T15:57:48;10.02;;;1.60;;
53421;SDS011;39319;52.944;5.928;2022-10-24T16:00:15;11.27;;;1.80;;
53421;SDS011;39319;52.944;5.928;2022-10-24T16:02:44;9.07;;;1.83;;
53421;SDS011;39319;52.944;5.928;2022-10-24T16:05:16;8.18;;;1.58;;
53421;SDS011;39319;52.944;5.928;2022-10-24T16:07:44;8.75;;;2.00;;
53421;SDS011;39319;52.944;5.928;2022-10-24T16:10:12;7.97;;;1.80;;
53421;SDS011;39319;52.944;5.928;2022-10-24T16:12:40;7.00;;;1.55;;
53421;SDS011;39319;52.944;5.928;2022-10-24T16:15:11;7.60;;;1.30;;
53421;SDS011;39319;52.944;5.928;2022-10-24T16:18:02;10.18;;;2.13;;
53421;SDS011;39319;52.944;5.928;2022-10-24T16:20:28;7.43;;;1.95;;
53421;SDS011;39319;52.944;5.928;2022-10-24T16:22:54;10.52;;;2.20;;
53421;SDS011;39319;52.944;5.928;2022-10-24T16:25:31;10.30;;;2.25;;
53421;SDS011;39319;52.944;5.928;2022-10-24T16:27:58;11.35;;;2.40;;
53421;SDS011;39319;52.944;5.928;2022-10-24T16:30:26;11.70;;;2.95;;
53421;SDS011;39319;52.944;5.928;2022-10-24T16:32:53;12.15;;;2.75;;
53421;SDS011;39319;52.944;5.928;2022-10-24T16:35:20;10.38;;;2.60;;
53421;SDS011;39319;52.944;5.928;2022-10-24T16:37:49;12.00;;;2.88;;
53421;SDS011;39319;52.944;5.928;2022-10-24T16:40:15;11.18;;;2.97;;
53421;SDS011;39319;52.944;5.928;2022-10-24T16:42:42;10.68;;;3.25;;
53421;SDS011;39319;52.944;5.928;2022-10-24T16:45:08;13.02;;;3.10;;
53421;SDS011;39319;52.944;5.928;2022-10-24T16:47:34;13.98;;;3.53;;
53421;SDS011;39319;52.944;5.928;2022-10-24T16:50:00;13.60;;;3.60;;
53421;SDS011;39319;52.944;5.928;2022-10-24T16:52:28;13.80;;;3.30;;
53421;SDS011;39319;52.944;5.928;2022-10-24T16:54:54;12.40;;;3.55;;
53421;SDS011;39319;52.944;5.928;2022-10-24T16:57:20;12.13;;;3.17;;
53421;SDS011;39319;52.944;5.928;2022-10-24T16:59:49;15.07;;;3.50;;
53421;SDS011;39319;52.944;5.928;2022-10-24T17:02:15;14.10;;;3.42;;
53421;SDS011;39319;52.944;5.928;2022-10-24T17:04:41;13.57;;;2.65;;
53421;SDS011;39319;52.944;5.928;2022-10-24T17:07:08;14.30;;;2.60;;
53421;SDS011;39319;52.944;5.928;2022-10-24T17:09:35;13.88;;;2.65;;
53421;SDS011;39319;52.944;5.928;2022-10-24T17:12:01;15.27;;;2.47;;
53421;SDS011;39319;52.944;5.928;2022-10-24T17:14:27;14.03;;;3.00;;
53421;SDS011;39319;52.944;5.928;2022-10-24T17:16:53;15.40;;;2.97;;
53421;SDS011;39319;52.944;5.928;2022-10-24T17:19:19;15.48;;;2.83;;
53421;SDS011;39319;52.944;5.928;2022-10-24T17:21:46;15.40;;;2.87;;
53421;SDS011;39319;52.944;5.928;2022-10-24T17:24:15;13.95;;;2.95;;
53421;SDS011;39319;52.944;5.928;2022-10-24T17:26:42;13.88;;;2.92;;
53421;SDS011;39319;52.944;5.928;2022-10-24T17:29:11;15.00;;;2.72;;
53421;SDS011;39319;52.944;5.928;2022-10-24T17:31:39;16.23;;;3.33;;
53421;SDS011;39319;52.944;5.928;2022-10-24T17:34:05;22.40;;;3.27;;
53421;SDS011;39319;52.944;5.928;2022-10-24T17:36:32;14.02;;;2.65;;
53421;SDS011;39319;52.944;5.928;2022-10-24T17:39:02;14.60;;;2.90;;
53421;SDS011;39319;52.944;5.928;2022-10-24T17:41:30;15.52;;;3.50;;